sensor_id;sensor_type;location;lat;lon;timestamp;temperature;humidity
38684;DHT22;24910;53.248;-6.134;2023-06-05T00:01:14;15.80;69.80
38684;DHT22;24910;53.248;-6.134;2023-06-05T00:03:45;15.80;69.90
38684;DHT22;24910;53.248;-6.134;2023-06-05T00:06:14;15.70;69.80
38684;DHT22;24910;53.248;-6.134;2023-06-05T00:08:43;15.70;69.90
38684;DHT22;24910;53.248;-6.134;2023-06-05T00:11:12;15.70;70.00
38684;DHT22;24910;53.248;-6.134;2023-06-05T00:13:42;15.70;70.10
38684;DHT22;24910;53.248;-6.134;2023-06-05T00:16:11;15.70;70.20
38684;DHT22;24910;53.248;-6.134;2023-06-05T00:18:41;15.70;70.40
38684;DHT22;24910;53.248;-6.134;2023-06-05T00:21:13;15.60;70.40
38684;DHT22;24910;53.248;-6.134;2023-06-05T00:23:43;15.60;70.50
38684;DHT22;24910;53.248;-6.134;2023-06-05T00:26:12;15.60;70.60
38684;DHT22;24910;53.248;-6.134;2023-06-05T00:28:41;15.60;70.70
38684;DHT22;24910;53.248;-6.134;2023-06-05T00:31:10;15.60;70.70
38684;DHT22;24910;53.248;-6.134;2023-06-05T00:33:42;15.50;70.80
38684;DHT22;24910;53.248;-6.134;2023-06-05T00:36:11;15.60;70.90
38684;DHT22;24910;53.248;-6.134;2023-06-05T00:38:40;15.60;70.90
38684;DHT22;24910;53.248;-6.134;2023-06-05T00:41:09;15.60;70.90
38684;DHT22;24910;53.248;-6.134;2023-06-05T00:43:39;15.50;70.90
38684;DHT22;24910;53.248;-6.134;2023-06-05T00:46:09;15.50;71.00
38684;DHT22;24910;53.248;-6.134;2023-06-05T00:48:41;15.50;71.10
38684;DHT22;24910;53.248;-6.134;2023-06-05T00:51:14;15.40;71.10
38684;DHT22;24910;53.248;-6.134;2023-06-05T00:53:47;15.40;71.10
38684;DHT22;24910;53.248;-6.134;2023-06-05T00:56:17;15.40;71.30
38684;DHT22;24910;53.248;-6.134;2023-06-05T00:58:49;15.40;71.30
38684;DHT22;24910;53.248;-6.134;2023-06-05T01:01:18;15.40;71.40
38684;DHT22;24910;53.248;-6.134;2023-06-05T01:03:50;15.30;71.60
38684;DHT22;24910;53.248;-6.134;2023-06-05T01:06:21;15.30;71.70
38684;DHT22;24910;53.248;-6.134;2023-06-05T01:08:51;15.30;71.70
38684;DHT22;24910;53.248;-6.134;2023-06-05T01:11:25;15.30;71.70
38684;DHT22;24910;53.248;-6.134;2023-06-05T01:14:01;15.30;71.80
38684;DHT22;24910;53.248;-6.134;2023-06-05T01:16:31;15.30;71.70
38684;DHT22;24910;53.248;-6.134;2023-06-05T01:19:03;15.30;71.70
38684;DHT22;24910;53.248;-6.134;2023-06-05T01:21:35;15.30;71.80
38684;DHT22;24910;53.248;-6.134;2023-06-05T01:24:05;15.20;72.00
38684;DHT22;24910;53.248;-6.134;2023-06-05T01:26:36;15.20;72.20
38684;DHT22;24910;53.248;-6.134;2023-06-05T01:29:11;15.10;72.20
38684;DHT22;24910;53.248;-6.134;2023-06-05T01:31:43;15.20;72.10
38684;DHT22;24910;53.248;-6.134;2023-06-05T01:34:15;15.10;72.10
38684;DHT22;24910;53.248;-6.134;2023-06-05T01:36:48;15.20;72.30
38684;DHT22;24910;53.248;-6.134;2023-06-05T01:39:19;15.10;72.30
38684;DHT22;24910;53.248;-6.134;2023-06-05T01:41:50;15.10;72.50
38684;DHT22;24910;53.248;-6.134;2023-06-05T01:44:20;15.10;72.50
38684;DHT22;24910;53.248;-6.134;2023-06-05T01:46:50;15.10;72.60
38684;DHT22;24910;53.248;-6.134;2023-06-05T01:49:20;15.10;72.70
38684;DHT22;24910;53.248;-6.134;2023-06-05T01:51:49;15.10;72.70
38684;DHT22;24910;53.248;-6.134;2023-06-05T01:54:20;15.00;72.80
38684;DHT22;24910;53.248;-6.134;2023-06-05T01:56:51;15.00;72.80
38684;DHT22;24910;53.248;-6.134;2023-06-05T01:59:23;15.00;72.90
38684;DHT22;24910;53.248;-6.134;2023-06-05T02:01:52;15.00;73.00
38684;DHT22;24910;53.248;-6.134;2023-06-05T02:04:21;15.00;73.00
38684;DHT22;24910;53.248;-6.134;2023-06-05T02:06:51;15.00;73.00
38684;DHT22;24910;53.248;-6.134;2023-06-05T02:09:22;15.00;73.00
38684;DHT22;24910;53.248;-6.134;2023-06-05T02:11:53;15.00;73.10
38684;DHT22;24910;53.248;-6.134;2023-06-05T02:14:22;15.00;73.10
38684;DHT22;24910;53.248;-6.134;2023-06-05T02:16:52;14.90;73.20
38684;DHT22;24910;53.248;-6.134;2023-06-05T02:19:22;14.90;73.20
38684;DHT22;24910;53.248;-6.134;2023-06-05T02:21:52;14.90;73.30
38684;DHT22;24910;53.248;-6.134;2023-06-05T02:24:23;14.90;73.30
38684;DHT22;24910;53.248;-6.134;2023-06-05T02:26:54;14.80;73.30
38684;DHT22;24910;53.248;-6.134;2023-06-05T02:29:24;14.80;73.40
38684;DHT22;24910;53.248;-6.134;2023-06-05T02:31:54;14.80;73.40
38684;DHT22;24910;53.248;-6.134;2023-06-05T02:34:23;14.80;73.40
38684;DHT22;24910;53.248;-6.134;2023-06-05T02:36:52;14.80;73.50
38684;DHT22;24910;53.248;-6.134;2023-06-05T02:39:24;14.80;73.50
38684;DHT22;24910;53.248;-6.134;2023-06-05T02:41:54;14.80;73.60
38684;DHT22;24910;53.248;-6.134;2023-06-05T02:44:24;14.80;73.70
38684;DHT22;24910;53.248;-6.134;2023-06-05T02:46:54;14.80;73.80
38684;DHT22;24910;53.248;-6.134;2023-06-05T02:49:23;14.80;73.90
38684;DHT22;24910;53.248;-6.134;2023-06-05T02:51:52;14.80;73.90
38684;DHT22;24910;53.248;-6.134;2023-06-05T02:54:21;14.80;74.00
38684;DHT22;24910;53.248;-6.134;2023-06-05T02:56:52;14.80;74.00
38684;DHT22;24910;53.248;-6.134;2023-06-05T02:59:22;14.80;74.00
38684;DHT22;24910;53.248;-6.134;2023-06-05T03:01:53;14.80;74.10
38684;DHT22;24910;53.248;-6.134;2023-06-05T03:04:23;14.80;74.10
38684;DHT22;24910;53.248;-6.134;2023-06-05T03:06:56;14.80;74.10
38684;DHT22;24910;53.248;-6.134;2023-06-05T03:09:26;14.70;74.10
38684;DHT22;24910;53.248;-6.134;2023-06-05T03:11:56;14.80;74.10
38684;DHT22;24910;53.248;-6.134;2023-06-05T03:14:26;14.70;74.10
38684;DHT22;24910;53.248;-6.134;2023-06-05T03:16:56;14.70;74.10
38684;DHT22;24910;53.248;-6.134;2023-06-05T03:19:26;14.70;74.10
38684;DHT22;24910;53.248;-6.134;2023-06-05T03:21:59;14.70;74.10
38684;DHT22;24910;53.248;-6.134;2023-06-05T03:24:30;14.70;74.10
38684;DHT22;24910;53.248;-6.134;2023-06-05T03:27:05;14.70;74.10
38684;DHT22;24910;53.248;-6.134;2023-06-05T03:29:34;14.70;74.10
38684;DHT22;24910;53.248;-6.134;2023-06-05T03:32:04;14.70;74.10
38684;DHT22;24910;53.248;-6.134;2023-06-05T03:34:33;14.70;74.10
38684;DHT22;24910;53.248;-6.134;2023-06-05T03:37:05;14.60;74.10
38684;DHT22;24910;53.248;-6.134;2023-06-05T03:39:34;14.70;74.20
38684;DHT22;24910;53.248;-6.134;2023-06-05T03:42:06;14.60;73.90
38684;DHT22;24910;53.248;-6.134;2023-06-05T03:44:37;14.60;74.00
38684;DHT22;24910;53.248;-6.134;2023-06-05T03:47:06;14.60;74.10
38684;DHT22;24910;53.248;-6.134;2023-06-05T03:49:38;14.60;75.10
38684;DHT22;24910;53.248;-6.134;2023-06-05T03:52:14;14.60;74.40
38684;DHT22;24910;53.248;-6.134;2023-06-05T03:54:43;14.50;74.30
38684;DHT22;24910;53.248;-6.134;2023-06-05T03:57:17;14.50;74.30
38684;DHT22;24910;53.248;-6.134;2023-06-05T03:59:48;14.50;74.30
38684;DHT22;24910;53.248;-6.134;2023-06-05T04:02:18;14.50;74.40
38684;DHT22;24910;53.248;-6.134;2023-06-05T04:04:47;14.50;74.40
38684;DHT22;24910;53.248;-6.134;2023-06-05T04:07:18;14.50;74.50
38684;DHT22;24910;53.248;-6.134;2023-06-05T04:09:48;14.50;74.50
38684;DHT22;24910;53.248;-6.134;2023-06-05T04:12:18;14.50;74.60
38684;DHT22;24910;53.248;-6.134;2023-06-05T04:14:49;14.40;74.60
38684;DHT22;24910;53.248;-6.134;2023-06-05T04:17:18;14.50;74.70
38684;DHT22;24910;53.248;-6.134;2023-06-05T04:19:47;14.50;74.70
38684;DHT22;24910;53.248;-6.134;2023-06-05T04:22:16;14.40;74.80
38684;DHT22;24910;53.248;-6.134;2023-06-05T04:24:45;14.40;74.70
38684;DHT22;24910;53.248;-6.134;2023-06-05T04:27:15;14.50;74.80
38684;DHT22;24910;53.248;-6.134;2023-06-05T04:29:46;14.50;75.00
38684;DHT22;24910;53.248;-6.134;2023-06-05T04:32:18;14.50;75.00
38684;DHT22;24910;53.248;-6.134;2023-06-05T04:34:47;14.50;75.00
38684;DHT22;24910;53.248;-6.134;2023-06-05T04:37:17;14.60;75.00
38684;DHT22;24910;53.248;-6.134;2023-06-05T04:39:46;14.60;75.00
38684;DHT22;24910;53.248;-6.134;2023-06-05T04:42:16;14.60;75.10
38684;DHT22;24910;53.248;-6.134;2023-06-05T04:44:56;14.60;75.20
38684;DHT22;24910;53.248;-6.134;2023-06-05T04:47:27;14.60;75.30
38684;DHT22;24910;53.248;-6.134;2023-06-05T04:49:58;14.60;75.30
38684;DHT22;24910;53.248;-6.134;2023-06-05T04:52:28;14.70;75.40
38684;DHT22;24910;53.248;-6.134;2023-06-05T04:54:58;14.70;75.60
38684;DHT22;24910;53.248;-6.134;2023-06-05T04:57:27;14.70;75.70
38684;DHT22;24910;53.248;-6.134;2023-06-05T04:59:58;14.80;75.80
38684;DHT22;24910;53.248;-6.134;2023-06-05T05:02:29;14.80;75.80
38684;DHT22;24910;53.248;-6.134;2023-06-05T05:04:58;14.90;75.90
38684;DHT22;24910;53.248;-6.134;2023-06-05T05:07:27;14.90;75.90
38684;DHT22;24910;53.248;-6.134;2023-06-05T05:09:56;15.00;76.10
38684;DHT22;24910;53.248;-6.134;2023-06-05T05:12:26;15.10;76.30
38684;DHT22;24910;53.248;-6.134;2023-06-05T05:14:55;15.30;76.60
38684;DHT22;24910;53.248;-6.134;2023-06-05T05:17:26;15.50;76.40
38684;DHT22;24910;53.248;-6.134;2023-06-05T05:19:55;15.70;76.20
38684;DHT22;24910;53.248;-6.134;2023-06-05T05:22:25;15.90;76.70
38684;DHT22;24910;53.248;-6.134;2023-06-05T05:24:56;16.10;75.50
38684;DHT22;24910;53.248;-6.134;2023-06-05T05:27:25;16.20;75.30
38684;DHT22;24910;53.248;-6.134;2023-06-05T05:29:56;16.40;74.80
38684;DHT22;24910;53.248;-6.134;2023-06-05T05:32:26;16.60;74.50
38684;DHT22;24910;53.248;-6.134;2023-06-05T05:34:56;16.80;74.20
38684;DHT22;24910;53.248;-6.134;2023-06-05T05:37:26;17.00;73.80
38684;DHT22;24910;53.248;-6.134;2023-06-05T05:39:55;17.10;73.30
38684;DHT22;24910;53.248;-6.134;2023-06-05T05:42:24;17.30;73.00
38684;DHT22;24910;53.248;-6.134;2023-06-05T05:44:53;17.40;72.80
38684;DHT22;24910;53.248;-6.134;2023-06-05T05:47:22;17.60;72.80
38684;DHT22;24910;53.248;-6.134;2023-06-05T05:49:53;17.80;72.70
38684;DHT22;24910;53.248;-6.134;2023-06-05T05:52:22;17.90;72.20
38684;DHT22;24910;53.248;-6.134;2023-06-05T05:54:51;18.10;71.90
38684;DHT22;24910;53.248;-6.134;2023-06-05T05:57:20;18.20;71.60
38684;DHT22;24910;53.248;-6.134;2023-06-05T05:59:50;18.40;71.70
38684;DHT22;24910;53.248;-6.134;2023-06-05T06:02:19;18.50;71.60
38684;DHT22;24910;53.248;-6.134;2023-06-05T06:04:49;18.60;71.60
38684;DHT22;24910;53.248;-6.134;2023-06-05T06:07:19;18.70;71.60
38684;DHT22;24910;53.248;-6.134;2023-06-05T06:09:48;18.80;71.80
38684;DHT22;24910;53.248;-6.134;2023-06-05T06:12:17;18.90;72.00
38684;DHT22;24910;53.248;-6.134;2023-06-05T06:14:47;19.00;72.10
38684;DHT22;24910;53.248;-6.134;2023-06-05T06:17:16;19.10;72.10
38684;DHT22;24910;53.248;-6.134;2023-06-05T06:19:45;19.10;72.20
38684;DHT22;24910;53.248;-6.134;2023-06-05T06:22:16;19.10;72.30
38684;DHT22;24910;53.248;-6.134;2023-06-05T06:24:46;19.20;72.30
38684;DHT22;24910;53.248;-6.134;2023-06-05T06:27:18;19.30;72.70
38684;DHT22;24910;53.248;-6.134;2023-06-05T06:30:02;19.30;72.80
38684;DHT22;24910;53.248;-6.134;2023-06-05T06:32:32;19.40;72.90
38684;DHT22;24910;53.248;-6.134;2023-06-05T06:35:01;19.40;72.80
38684;DHT22;24910;53.248;-6.134;2023-06-05T06:37:31;19.50;72.90
38684;DHT22;24910;53.248;-6.134;2023-06-05T06:40:04;19.60;72.90
38684;DHT22;24910;53.248;-6.134;2023-06-05T06:42:37;19.60;72.90
38684;DHT22;24910;53.248;-6.134;2023-06-05T06:45:26;19.70;72.70
38684;DHT22;24910;53.248;-6.134;2023-06-05T06:47:56;19.70;72.70
38684;DHT22;24910;53.248;-6.134;2023-06-05T06:50:35;19.80;72.70
38684;DHT22;24910;53.248;-6.134;2023-06-05T06:53:04;19.70;72.40
38684;DHT22;24910;53.248;-6.134;2023-06-05T06:55:34;19.80;72.20
38684;DHT22;24910;53.248;-6.134;2023-06-05T06:58:04;19.80;72.00
38684;DHT22;24910;53.248;-6.134;2023-06-05T07:00:33;19.80;72.00
38684;DHT22;24910;53.248;-6.134;2023-06-05T07:03:03;19.90;72.30
38684;DHT22;24910;53.248;-6.134;2023-06-05T07:05:32;20.00;72.40
38684;DHT22;24910;53.248;-6.134;2023-06-05T07:08:06;20.10;72.20
38684;DHT22;24910;53.248;-6.134;2023-06-05T07:10:38;20.10;71.50
38684;DHT22;24910;53.248;-6.134;2023-06-05T07:13:08;20.30;71.30
38684;DHT22;24910;53.248;-6.134;2023-06-05T07:15:37;20.40;71.20
38684;DHT22;24910;53.248;-6.134;2023-06-05T07:18:06;20.50;71.10
38684;DHT22;24910;53.248;-6.134;2023-06-05T07:20:37;20.60;70.50
38684;DHT22;24910;53.248;-6.134;2023-06-05T07:23:07;20.50;69.90
38684;DHT22;24910;53.248;-6.134;2023-06-05T07:25:37;20.60;69.80
38684;DHT22;24910;53.248;-6.134;2023-06-05T07:28:09;20.60;69.30
38684;DHT22;24910;53.248;-6.134;2023-06-05T07:30:39;20.70;69.10
38684;DHT22;24910;53.248;-6.134;2023-06-05T07:33:11;20.60;68.70
38684;DHT22;24910;53.248;-6.134;2023-06-05T07:35:58;20.70;68.50
38684;DHT22;24910;53.248;-6.134;2023-06-05T07:38:27;20.70;68.20
38684;DHT22;24910;53.248;-6.134;2023-06-05T07:40:59;20.70;68.40
38684;DHT22;24910;53.248;-6.134;2023-06-05T07:43:29;20.70;68.50
38684;DHT22;24910;53.248;-6.134;2023-06-05T07:45:59;20.70;68.20
38684;DHT22;24910;53.248;-6.134;2023-06-05T07:48:28;20.80;67.70
38684;DHT22;24910;53.248;-6.134;2023-06-05T07:50:58;20.90;67.00
38684;DHT22;24910;53.248;-6.134;2023-06-05T07:53:27;20.90;66.50
38684;DHT22;24910;53.248;-6.134;2023-06-05T07:55:56;21.00;66.20
38684;DHT22;24910;53.248;-6.134;2023-06-05T07:58:26;21.20;65.60
38684;DHT22;24910;53.248;-6.134;2023-06-05T08:00:57;21.30;64.90
38684;DHT22;24910;53.248;-6.134;2023-06-05T08:03:28;21.40;64.30
38684;DHT22;24910;53.248;-6.134;2023-06-05T08:05:57;21.50;64.10
38684;DHT22;24910;53.248;-6.134;2023-06-05T08:08:26;21.60;64.10
38684;DHT22;24910;53.248;-6.134;2023-06-05T08:10:56;21.70;64.30
38684;DHT22;24910;53.248;-6.134;2023-06-05T08:13:26;21.70;63.90
38684;DHT22;24910;53.248;-6.134;2023-06-05T08:15:55;21.70;63.30
38684;DHT22;24910;53.248;-6.134;2023-06-05T08:18:24;21.80;63.60
38684;DHT22;24910;53.248;-6.134;2023-06-05T08:20:54;21.80;63.60
38684;DHT22;24910;53.248;-6.134;2023-06-05T08:23:23;21.80;63.40
38684;DHT22;24910;53.248;-6.134;2023-06-05T08:25:53;21.80;63.30
38684;DHT22;24910;53.248;-6.134;2023-06-05T08:28:26;21.80;63.40
38684;DHT22;24910;53.248;-6.134;2023-06-05T08:30:56;21.80;63.10
38684;DHT22;24910;53.248;-6.134;2023-06-05T08:33:25;21.90;62.70
38684;DHT22;24910;53.248;-6.134;2023-06-05T08:35:54;21.80;62.60
38684;DHT22;24910;53.248;-6.134;2023-06-05T08:38:24;21.80;62.50
38684;DHT22;24910;53.248;-6.134;2023-06-05T08:40:59;21.80;62.10
38684;DHT22;24910;53.248;-6.134;2023-06-05T08:43:30;21.80;61.70
38684;DHT22;24910;53.248;-6.134;2023-06-05T08:46:00;21.80;61.60
38684;DHT22;24910;53.248;-6.134;2023-06-05T08:48:32;21.80;61.80
38684;DHT22;24910;53.248;-6.134;2023-06-05T08:51:02;21.80;62.00
38684;DHT22;24910;53.248;-6.134;2023-06-05T08:53:32;21.80;62.10
38684;DHT22;24910;53.248;-6.134;2023-06-05T08:56:02;21.80;61.80
38684;DHT22;24910;53.248;-6.134;2023-06-05T08:58:33;21.90;61.30
38684;DHT22;24910;53.248;-6.134;2023-06-05T09:01:02;21.80;61.60
38684;DHT22;24910;53.248;-6.134;2023-06-05T09:03:33;21.80;61.60
38684;DHT22;24910;53.248;-6.134;2023-06-05T09:06:02;21.80;61.10
38684;DHT22;24910;53.248;-6.134;2023-06-05T09:08:33;21.70;60.60
38684;DHT22;24910;53.248;-6.134;2023-06-05T09:11:20;21.70;60.20
38684;DHT22;24910;53.248;-6.134;2023-06-05T09:13:52;21.60;59.20
38684;DHT22;24910;53.248;-6.134;2023-06-05T09:16:21;21.50;59.30
38684;DHT22;24910;53.248;-6.134;2023-06-05T09:18:55;21.50;59.00
38684;DHT22;24910;53.248;-6.134;2023-06-05T09:21:25;21.40;59.10
38684;DHT22;24910;53.248;-6.134;2023-06-05T09:24:14;21.40;59.20
38684;DHT22;24910;53.248;-6.134;2023-06-05T09:26:53;21.40;58.90
38684;DHT22;24910;53.248;-6.134;2023-06-05T09:29:25;21.40;58.70
38684;DHT22;24910;53.248;-6.134;2023-06-05T09:31:56;21.40;58.40
38684;DHT22;24910;53.248;-6.134;2023-06-05T09:34:27;21.40;58.30
38684;DHT22;24910;53.248;-6.134;2023-06-05T09:36:58;21.40;58.20
38684;DHT22;24910;53.248;-6.134;2023-06-05T09:39:28;21.40;58.20
38684;DHT22;24910;53.248;-6.134;2023-06-05T09:41:58;21.40;58.50
38684;DHT22;24910;53.248;-6.134;2023-06-05T09:44:30;21.60;58.70
38684;DHT22;24910;53.248;-6.134;2023-06-05T09:47:01;21.60;58.10
38684;DHT22;24910;53.248;-6.134;2023-06-05T09:49:46;21.60;58.20
38684;DHT22;24910;53.248;-6.134;2023-06-05T09:52:15;21.60;58.40
38684;DHT22;24910;53.248;-6.134;2023-06-05T09:54:45;21.60;58.50
38684;DHT22;24910;53.248;-6.134;2023-06-05T09:57:15;21.60;58.90
38684;DHT22;24910;53.248;-6.134;2023-06-05T09:59:50;21.50;58.70
38684;DHT22;24910;53.248;-6.134;2023-06-05T10:02:23;21.40;58.40
38684;DHT22;24910;53.248;-6.134;2023-06-05T10:04:57;21.30;58.60
38684;DHT22;24910;53.248;-6.134;2023-06-05T10:07:30;21.20;58.90
38684;DHT22;24910;53.248;-6.134;2023-06-05T10:09:59;21.20;58.70
38684;DHT22;24910;53.248;-6.134;2023-06-05T10:12:30;21.10;58.90
38684;DHT22;24910;53.248;-6.134;2023-06-05T10:15:02;21.00;59.20
38684;DHT22;24910;53.248;-6.134;2023-06-05T10:17:33;20.90;58.80
38684;DHT22;24910;53.248;-6.134;2023-06-05T10:20:06;20.90;58.70
38684;DHT22;24910;53.248;-6.134;2023-06-05T10:22:36;21.00;58.70
38684;DHT22;24910;53.248;-6.134;2023-06-05T10:25:07;21.10;58.20
38684;DHT22;24910;53.248;-6.134;2023-06-05T10:28:05;21.20;58.00
38684;DHT22;24910;53.248;-6.134;2023-06-05T10:31:12;21.30;57.50
38684;DHT22;24910;53.248;-6.134;2023-06-05T10:33:56;21.30;57.40
38684;DHT22;24910;53.248;-6.134;2023-06-05T10:39:29;21.20;56.80
38684;DHT22;24910;53.248;-6.134;2023-06-05T10:41:59;21.10;56.80
38684;DHT22;24910;53.248;-6.134;2023-06-05T10:44:42;21.00;57.30
38684;DHT22;24910;53.248;-6.134;2023-06-05T10:47:52;21.00;57.50
38684;DHT22;24910;53.248;-6.134;2023-06-05T10:50:23;21.00;57.20
38684;DHT22;24910;53.248;-6.134;2023-06-05T10:52:55;20.90;57.30
38684;DHT22;24910;53.248;-6.134;2023-06-05T10:55:25;20.80;57.60
38684;DHT22;24910;53.248;-6.134;2023-06-05T10:58:11;20.70;58.00
38684;DHT22;24910;53.248;-6.134;2023-06-05T11:01:15;20.70;58.30
38684;DHT22;24910;53.248;-6.134;2023-06-05T11:03:58;20.80;58.70
38684;DHT22;24910;53.248;-6.134;2023-06-05T11:06:29;20.80;58.70
38684;DHT22;24910;53.248;-6.134;2023-06-05T11:09:12;20.80;58.70
38684;DHT22;24910;53.248;-6.134;2023-06-05T11:11:58;20.70;58.70
38684;DHT22;24910;53.248;-6.134;2023-06-05T11:14:45;20.80;58.90
38684;DHT22;24910;53.248;-6.134;2023-06-05T11:17:27;20.80;59.20
38684;DHT22;24910;53.248;-6.134;2023-06-05T11:19:58;20.70;59.70
38684;DHT22;24910;53.248;-6.134;2023-06-05T11:22:27;20.80;59.90
38684;DHT22;24910;53.248;-6.134;2023-06-05T11:25:24;20.80;59.70
38684;DHT22;24910;53.248;-6.134;2023-06-05T11:27:56;20.90;59.40
38684;DHT22;24910;53.248;-6.134;2023-06-05T11:30:28;21.00;59.20
38684;DHT22;24910;53.248;-6.134;2023-06-05T11:33:15;21.10;59.20
38684;DHT22;24910;53.248;-6.134;2023-06-05T11:35:48;21.10;59.30
38684;DHT22;24910;53.248;-6.134;2023-06-05T11:38:19;21.10;59.20
38684;DHT22;24910;53.248;-6.134;2023-06-05T11:40:52;21.10;59.10
38684;DHT22;24910;53.248;-6.134;2023-06-05T11:43:22;21.10;59.70
38684;DHT22;24910;53.248;-6.134;2023-06-05T11:45:52;21.10;59.10
38684;DHT22;24910;53.248;-6.134;2023-06-05T11:48:22;21.00;59.10
38684;DHT22;24910;53.248;-6.134;2023-06-05T11:50:56;20.90;58.80
38684;DHT22;24910;53.248;-6.134;2023-06-05T11:53:27;20.80;58.60
38684;DHT22;24910;53.248;-6.134;2023-06-05T11:55:57;20.70;58.60
38684;DHT22;24910;53.248;-6.134;2023-06-05T11:58:38;20.60;58.90
38684;DHT22;24910;53.248;-6.134;2023-06-05T12:01:09;20.60;59.60
38684;DHT22;24910;53.248;-6.134;2023-06-05T12:03:42;20.40;59.80
38684;DHT22;24910;53.248;-6.134;2023-06-05T12:06:15;20.40;60.30
38684;DHT22;24910;53.248;-6.134;2023-06-05T12:08:45;20.30;60.70
38684;DHT22;24910;53.248;-6.134;2023-06-05T12:11:22;20.40;61.20
38684;DHT22;24910;53.248;-6.134;2023-06-05T12:13:53;20.30;61.20
38684;DHT22;24910;53.248;-6.134;2023-06-05T12:16:30;20.40;61.40
38684;DHT22;24910;53.248;-6.134;2023-06-05T12:19:01;20.30;61.50
38684;DHT22;24910;53.248;-6.134;2023-06-05T12:21:44;20.20;61.60
38684;DHT22;24910;53.248;-6.134;2023-06-05T12:24:14;20.20;61.70
38684;DHT22;24910;53.248;-6.134;2023-06-05T12:26:51;20.20;61.60
38684;DHT22;24910;53.248;-6.134;2023-06-05T12:29:23;20.10;61.60
38684;DHT22;24910;53.248;-6.134;2023-06-05T12:31:54;20.10;61.90
38684;DHT22;24910;53.248;-6.134;2023-06-05T12:34:43;19.90;62.20
38684;DHT22;24910;53.248;-6.134;2023-06-05T12:37:25;19.90;63.10
38684;DHT22;24910;53.248;-6.134;2023-06-05T12:39:58;20.00;63.10
38684;DHT22;24910;53.248;-6.134;2023-06-05T12:42:28;20.00;63.10
38684;DHT22;24910;53.248;-6.134;2023-06-05T12:44:57;20.00;62.90
38684;DHT22;24910;53.248;-6.134;2023-06-05T12:47:26;20.00;63.50
38684;DHT22;24910;53.248;-6.134;2023-06-05T12:49:55;19.90;61.20
38684;DHT22;24910;53.248;-6.134;2023-06-05T12:52:27;19.80;60.90
38684;DHT22;24910;53.248;-6.134;2023-06-05T12:54:56;19.70;60.90
38684;DHT22;24910;53.248;-6.134;2023-06-05T12:57:25;19.70;61.40
38684;DHT22;24910;53.248;-6.134;2023-06-05T12:59:55;19.60;61.50
38684;DHT22;24910;53.248;-6.134;2023-06-05T13:02:24;19.60;61.80
38684;DHT22;24910;53.248;-6.134;2023-06-05T13:04:53;19.60;61.80
38684;DHT22;24910;53.248;-6.134;2023-06-05T13:07:22;19.70;61.60
38684;DHT22;24910;53.248;-6.134;2023-06-05T13:09:53;19.70;61.30
38684;DHT22;24910;53.248;-6.134;2023-06-05T13:12:23;19.60;61.70
38684;DHT22;24910;53.248;-6.134;2023-06-05T13:14:52;19.60;61.10
38684;DHT22;24910;53.248;-6.134;2023-06-05T13:17:21;19.50;61.10
38684;DHT22;24910;53.248;-6.134;2023-06-05T13:19:52;19.40;61.60
38684;DHT22;24910;53.248;-6.134;2023-06-05T13:22:21;19.20;62.00
38684;DHT22;24910;53.248;-6.134;2023-06-05T13:24:50;19.10;62.20
38684;DHT22;24910;53.248;-6.134;2023-06-05T13:27:21;19.00;62.70
38684;DHT22;24910;53.248;-6.134;2023-06-05T13:29:50;19.10;62.70
38684;DHT22;24910;53.248;-6.134;2023-06-05T13:32:19;19.10;62.30
38684;DHT22;24910;53.248;-6.134;2023-06-05T13:34:49;19.10;62.40
38684;DHT22;24910;53.248;-6.134;2023-06-05T13:37:18;19.10;62.40
38684;DHT22;24910;53.248;-6.134;2023-06-05T13:39:51;19.10;62.50
38684;DHT22;24910;53.248;-6.134;2023-06-05T13:42:21;19.10;62.20
38684;DHT22;24910;53.248;-6.134;2023-06-05T13:44:51;19.00;61.80
38684;DHT22;24910;53.248;-6.134;2023-06-05T13:47:20;19.00;61.90
38684;DHT22;24910;53.248;-6.134;2023-06-05T13:49:49;19.00;61.70
38684;DHT22;24910;53.248;-6.134;2023-06-05T13:52:19;19.10;61.60
38684;DHT22;24910;53.248;-6.134;2023-06-05T13:54:48;19.10;61.20
38684;DHT22;24910;53.248;-6.134;2023-06-05T13:57:17;19.10;60.40
38684;DHT22;24910;53.248;-6.134;2023-06-05T13:59:47;19.00;60.00
38684;DHT22;24910;53.248;-6.134;2023-06-05T14:02:17;19.00;59.90
38684;DHT22;24910;53.248;-6.134;2023-06-05T14:04:46;19.00;59.80
38684;DHT22;24910;53.248;-6.134;2023-06-05T14:07:15;19.00;59.90
38684;DHT22;24910;53.248;-6.134;2023-06-05T14:09:44;19.00;59.80
38684;DHT22;24910;53.248;-6.134;2023-06-05T14:12:13;19.00;60.10
38684;DHT22;24910;53.248;-6.134;2023-06-05T14:14:44;19.00;60.30
38684;DHT22;24910;53.248;-6.134;2023-06-05T14:17:15;19.00;60.20
38684;DHT22;24910;53.248;-6.134;2023-06-05T14:19:44;18.90;60.40
38684;DHT22;24910;53.248;-6.134;2023-06-05T14:22:13;19.00;60.60
38684;DHT22;24910;53.248;-6.134;2023-06-05T14:24:42;19.00;60.50
38684;DHT22;24910;53.248;-6.134;2023-06-05T14:27:11;19.00;60.40
38684;DHT22;24910;53.248;-6.134;2023-06-05T14:29:41;19.00;60.40
38684;DHT22;24910;53.248;-6.134;2023-06-05T14:32:10;18.80;60.50
38684;DHT22;24910;53.248;-6.134;2023-06-05T14:34:41;18.80;60.70
38684;DHT22;24910;53.248;-6.134;2023-06-05T14:37:10;18.80;60.90
38684;DHT22;24910;53.248;-6.134;2023-06-05T14:39:39;18.90;61.20
38684;DHT22;24910;53.248;-6.134;2023-06-05T14:42:08;19.00;61.10
38684;DHT22;24910;53.248;-6.134;2023-06-05T14:44:37;19.00;61.00
38684;DHT22;24910;53.248;-6.134;2023-06-05T14:47:07;19.00;61.10
38684;DHT22;24910;53.248;-6.134;2023-06-05T14:49:36;18.90;61.00
38684;DHT22;24910;53.248;-6.134;2023-06-05T14:52:06;18.90;61.00
38684;DHT22;24910;53.248;-6.134;2023-06-05T14:54:36;18.80;61.00
38684;DHT22;24910;53.248;-6.134;2023-06-05T14:57:06;18.80;61.20
38684;DHT22;24910;53.248;-6.134;2023-06-05T14:59:35;18.70;61.40
38684;DHT22;24910;53.248;-6.134;2023-06-05T15:02:05;18.70;61.20
38684;DHT22;24910;53.248;-6.134;2023-06-05T15:04:35;18.60;61.30
38684;DHT22;24910;53.248;-6.134;2023-06-05T15:07:06;18.70;61.40
38684;DHT22;24910;53.248;-6.134;2023-06-05T15:09:35;18.80;61.40
38684;DHT22;24910;53.248;-6.134;2023-06-05T15:12:05;18.80;61.40
38684;DHT22;24910;53.248;-6.134;2023-06-05T15:14:38;18.80;61.50
38684;DHT22;24910;53.248;-6.134;2023-06-05T15:17:07;18.70;61.60
38684;DHT22;24910;53.248;-6.134;2023-06-05T15:19:38;18.70;61.60
38684;DHT22;24910;53.248;-6.134;2023-06-05T15:22:08;18.80;61.50
38684;DHT22;24910;53.248;-6.134;2023-06-05T15:24:37;18.90;61.40
38684;DHT22;24910;53.248;-6.134;2023-06-05T15:27:07;18.90;61.20
38684;DHT22;24910;53.248;-6.134;2023-06-05T15:29:38;19.00;61.10
38684;DHT22;24910;53.248;-6.134;2023-06-05T15:32:07;18.90;61.10
38684;DHT22;24910;53.248;-6.134;2023-06-05T15:34:47;18.80;61.20
38684;DHT22;24910;53.248;-6.134;2023-06-05T15:37:17;18.80;61.50
38684;DHT22;24910;53.248;-6.134;2023-06-05T15:39:47;18.80;61.80
38684;DHT22;24910;53.248;-6.134;2023-06-05T15:42:18;18.80;62.10
38684;DHT22;24910;53.248;-6.134;2023-06-05T15:44:47;18.80;62.40